sensor_id;sensor_type;location;lat;lon;timestamp;pressure;altitude;pressure_sealevel;temperature;humidity
3122;BME280;1571;52.524;14.104;2023-09-07T00:01:07;101885.38;;;14.80;100.00
3122;BME280;1571;52.524;14.104;2023-09-07T00:03:35;101884.88;;;14.87;100.00
3122;BME280;1571;52.524;14.104;2023-09-07T00:06:09;101881.16;;;14.75;100.00
3122;BME280;1571;52.524;14.104;2023-09-07T00:08:37;101878.97;;;14.82;100.00
3122;BME280;1571;52.524;14.104;2023-09-07T00:11:08;101886.81;;;14.41;100.00
3122;BME280;1571;52.524;14.104;2023-09-07T00:13:37;101893.38;;;14.35;100.00
3122;BME280;1571;52.524;14.104;2023-09-07T00:16:05;101893.09;;;14.25;100.00
3122;BME280;1571;52.524;14.104;2023-09-07T00:18:34;101895.03;;;13.91;100.00
3122;BME280;1571;52.524;14.104;2023-09-07T00:21:03;101909.91;;;14.11;100.00
3122;BME280;1571;52.524;14.104;2023-09-07T00:23:31;101911.13;;;14.36;100.00
3122;BME280;1571;52.524;14.104;2023-09-07T00:25:59;101904.38;;;14.45;100.00
3122;BME280;1571;52.524;14.104;2023-09-07T00:28:29;101900.50;;;14.50;100.00
3122;BME280;1571;52.524;14.104;2023-09-07T00:30:58;101901.38;;;14.65;100.00
3122;BME280;1571;52.524;14.104;2023-09-07T00:33:26;101897.28;;;14.60;100.00
3122;BME280;1571;52.524;14.104;2023-09-07T00:35:54;101894.31;;;14.64;100.00
3122;BME280;1571;52.524;14.104;2023-09-07T00:38:22;101892.03;;;14.58;100.00
3122;BME280;1571;52.524;14.104;2023-09-07T00:40:51;101893.75;;;14.59;100.00
3122;BME280;1571;52.524;14.104;2023-09-07T00:43:19;101892.09;;;14.56;100.00
3122;BME280;1571;52.524;14.104;2023-09-07T00:45:49;101893.13;;;14.40;100.00
3122;BME280;1571;52.524;14.104;2023-09-07T00:48:18;101881.28;;;14.44;100.00
3122;BME280;1571;52.524;14.104;2023-09-07T00:50:46;101890.25;;;14.43;100.00
3122;BME280;1571;52.524;14.104;2023-09-07T00:53:16;101889.25;;;14.29;100.00
3122;BME280;1571;52.524;14.104;2023-09-07T00:55:45;101889.09;;;14.32;100.00
3122;BME280;1571;52.524;14.104;2023-09-07T00:58:13;101891.50;;;14.37;100.00
3122;BME280;1571;52.524;14.104;2023-09-07T01:00:42;101892.34;;;14.37;100.00
3122;BME280;1571;52.524;14.104;2023-09-07T01:03:12;101889.19;;;14.31;100.00
3122;BME280;1571;52.524;14.104;2023-09-07T01:05:56;101887.34;;;14.31;100.00
3122;BME280;1571;52.524;14.104;2023-09-07T01:08:28;101894.59;;;14.29;100.00
3122;BME280;1571;52.524;14.104;2023-09-07T01:10:57;101894.00;;;14.10;100.00
3122;BME280;1571;52.524;14.104;2023-09-07T01:13:26;101898.72;;;14.05;100.00
3122;BME280;1571;52.524;14.104;2023-09-07T01:15:54;101901.22;;;14.08;100.00
3122;BME280;1571;52.524;14.104;2023-09-07T01:18:24;101892.81;;;14.00;100.00
3122;BME280;1571;52.524;14.104;2023-09-07T01:20:54;101893.16;;;13.93;100.00
3122;BME280;1571;52.524;14.104;2023-09-07T01:23:25;101894.66;;;14.13;100.00
3122;BME280;1571;52.524;14.104;2023-09-07T01:25:53;101896.19;;;14.18;100.00
3122;BME280;1571;52.524;14.104;2023-09-07T01:28:23;101903.63;;;14.12;100.00
3122;BME280;1571;52.524;14.104;2023-09-07T01:30:51;101900.69;;;14.17;100.00
3122;BME280;1571;52.524;14.104;2023-09-07T01:33:20;101904.00;;;14.21;100.00
3122;BME280;1571;52.524;14.104;2023-09-07T01:35:50;101902.41;;;14.18;100.00
3122;BME280;1571;52.524;14.104;2023-09-07T01:38:18;101906.38;;;14.11;100.00
3122;BME280;1571;52.524;14.104;2023-09-07T01:40:48;101899.16;;;14.13;100.00
3122;BME280;1571;52.524;14.104;2023-09-07T01:43:16;101903.44;;;14.15;100.00
3122;BME280;1571;52.524;14.104;2023-09-07T01:45:44;101891.63;;;13.89;100.00
3122;BME280;1571;52.524;14.104;2023-09-07T01:48:13;101901.28;;;13.92;100.00
3122;BME280;1571;52.524;14.104;2023-09-07T01:50:42;101894.56;;;13.85;100.00
3122;BME280;1571;52.524;14.104;2023-09-07T01:53:11;101899.47;;;13.77;100.00
3122;BME280;1571;52.524;14.104;2023-09-07T01:55:39;101900.28;;;13.47;100.00
3122;BME280;1571;52.524;14.104;2023-09-07T01:58:09;101901.91;;;13.49;100.00
3122;BME280;1571;52.524;14.104;2023-09-07T02:00:37;101892.44;;;13.60;100.00
3122;BME280;1571;52.524;14.104;2023-09-07T02:03:06;101897.88;;;13.42;100.00
3122;BME280;1571;52.524;14.104;2023-09-07T02:05:35;101889.63;;;13.47;100.00
3122;BME280;1571;52.524;14.104;2023-09-07T02:08:04;101895.81;;;13.31;100.00
3122;BME280;1571;52.524;14.104;2023-09-07T02:10:33;101891.84;;;13.39;100.00
3122;BME280;1571;52.524;14.104;2023-09-07T02:13:01;101893.91;;;13.49;100.00
3122;BME280;1571;52.524;14.104;2023-09-07T02:15:32;101886.31;;;13.58;100.00
3122;BME280;1571;52.524;14.104;2023-09-07T02:18:00;101883.81;;;13.54;100.00
3122;BME280;1571;52.524;14.104;2023-09-07T02:20:31;101890.78;;;13.57;100.00
3122;BME280;1571;52.524;14.104;2023-09-07T02:23:00;101886.94;;;13.63;100.00
3122;BME280;1571;52.524;14.104;2023-09-07T02:25:30;101883.31;;;13.64;100.00
3122;BME280;1571;52.524;14.104;2023-09-07T02:27:58;101894.94;;;13.63;100.00
3122;BME280;1571;52.524;14.104;2023-09-07T02:30:27;101895.97;;;13.60;100.00
3122;BME280;1571;52.524;14.104;2023-09-07T02:32:57;101887.72;;;13.65;100.00
3122;BME280;1571;52.524;14.104;2023-09-07T02:35:27;101892.44;;;13.60;100.00
3122;BME280;1571;52.524;14.104;2023-09-07T02:37:55;101901.66;;;13.38;100.00
3122;BME280;1571;52.524;14.104;2023-09-07T02:40:23;101895.97;;;13.44;100.00
3122;BME280;1571;52.524;14.104;2023-09-07T02:42:52;101892.91;;;13.19;100.00
3122;BME280;1571;52.524;14.104;2023-09-07T02:45:20;101894.22;;;13.27;100.00
3122;BME280;1571;52.524;14.104;2023-09-07T02:47:48;101896.66;;;13.32;100.00
3122;BME280;1571;52.524;14.104;2023-09-07T02:50:19;101900.09;;;13.34;100.00
3122;BME280;1571;52.524;14.104;2023-09-07T02:52:48;101898.22;;;13.36;100.00
3122;BME280;1571;52.524;14.104;2023-09-07T02:55:16;101896.56;;;13.33;100.00
3122;BME280;1571;52.524;14.104;2023-09-07T02:57:44;101898.03;;;13.39;100.00
3122;BME280;1571;52.524;14.104;2023-09-07T03:00:13;101901.47;;;13.41;100.00
3122;BME280;1571;52.524;14.104;2023-09-07T03:02:44;101903.81;;;13.31;100.00
3122;BME280;1571;52.524;14.104;2023-09-07T03:05:13;101907.13;;;13.35;100.00
3122;BME280;1571;52.524;14.104;2023-09-07T03:07:45;101907.59;;;13.10;100.00
3122;BME280;1571;52.524;14.104;2023-09-07T03:10:16;101918.13;;;13.13;100.00
3122;BME280;1571;52.524;14.104;2023-09-07T03:12:45;101915.03;;;13.21;100.00
3122;BME280;1571;52.524;14.104;2023-09-07T03:15:15;101913.75;;;13.28;100.00
3122;BME280;1571;52.524;14.104;2023-09-07T03:17:44;101904.09;;;13.25;100.00
3122;BME280;1571;52.524;14.104;2023-09-07T03:20:13;101902.66;;;13.20;100.00
3122;BME280;1571;52.524;14.104;2023-09-07T03:22:47;101901.88;;;13.18;100.00
3122;BME280;1571;52.524;14.104;2023-09-07T03:25:15;101905.38;;;13.18;100.00
3122;BME280;1571;52.524;14.104;2023-09-07T03:27:44;101906.94;;;13.22;100.00
3122;BME280;1571;52.524;14.104;2023-09-07T03:30:13;101901.75;;;13.19;100.00
3122;BME280;1571;52.524;14.104;2023-09-07T03:32:42;101903.56;;;13.19;100.00
3122;BME280;1571;52.524;14.104;2023-09-07T03:35:11;101908.84;;;13.20;100.00
3122;BME280;1571;52.524;14.104;2023-09-07T03:37:41;101913.31;;;13.20;100.00
3122;BME280;1571;52.524;14.104;2023-09-07T03:40:12;101909.69;;;13.21;100.00
3122;BME280;1571;52.524;14.104;2023-09-07T03:42:40;101907.97;;;13.04;100.00
3122;BME280;1571;52.524;14.104;2023-09-07T03:45:11;101917.41;;;13.09;100.00
3122;BME280;1571;52.524;14.104;2023-09-07T03:47:39;101917.47;;;13.08;100.00
3122;BME280;1571;52.524;14.104;2023-09-07T03:50:09;101923.56;;;12.94;100.00
3122;BME280;1571;52.524;14.104;2023-09-07T03:52:38;101919.97;;;12.95;100.00
3122;BME280;1571;52.524;14.104;2023-09-07T03:55:07;101929.63;;;12.80;100.00
3122;BME280;1571;52.524;14.104;2023-09-07T03:57:38;101929.28;;;12.70;100.00
3122;BME280;1571;52.524;14.104;2023-09-07T04:00:07;101934.66;;;12.69;100.00
3122;BME280;1571;52.524;14.104;2023-09-07T04:02:46;101933.00;;;12.84;100.00
3122;BME280;1571;52.524;14.104;2023-09-07T04:05:15;101933.94;;;12.83;100.00
3122;BME280;1571;52.524;14.104;2023-09-07T04:07:43;101932.06;;;12.85;100.00
3122;BME280;1571;52.524;14.104;2023-09-07T04:10:11;101927.00;;;12.96;100.00
3122;BME280;1571;52.524;14.104;2023-09-07T04:12:41;101931.03;;;12.87;100.00
3122;BME280;1571;52.524;14.104;2023-09-07T04:15:10;101938.53;;;12.97;100.00
3122;BME280;1571;52.524;14.104;2023-09-07T04:17:38;101933.91;;;13.00;100.00
3122;BME280;1571;52.524;14.104;2023-09-07T04:20:09;101934.94;;;12.98;100.00
3122;BME280;1571;52.524;14.104;2023-09-07T04:22:39;101930.13;;;13.04;100.00
3122;BME280;1571;52.524;14.104;2023-09-07T04:25:08;101926.69;;;13.02;100.00
3122;BME280;1571;52.524;14.104;2023-09-07T04:27:41;101928.25;;;13.06;100.00
3122;BME280;1571;52.524;14.104;2023-09-07T04:30:10;101931.16;;;13.02;100.00
3122;BME280;1571;52.524;14.104;2023-09-07T04:32:39;101929.28;;;13.04;100.00
3122;BME280;1571;52.524;14.104;2023-09-07T04:35:08;101927.63;;;13.01;100.00
3122;BME280;1571;52.524;14.104;2023-09-07T04:37:37;101937.69;;;12.96;100.00
3122;BME280;1571;52.524;14.104;2023-09-07T04:40:06;101937.59;;;12.98;100.00
3122;BME280;1571;52.524;14.104;2023-09-07T04:42:35;101934.50;;;13.05;100.00
3122;BME280;1571;52.524;14.104;2023-09-07T04:45:05;101932.63;;;13.07;100.00
3122;BME280;1571;52.524;14.104;2023-09-07T04:47:34;101935.56;;;13.19;100.00
3122;BME280;1571;52.524;14.104;2023-09-07T04:50:06;101931.88;;;13.21;100.00
3122;BME280;1571;52.524;14.104;2023-09-07T04:52:35;101926.66;;;13.20;100.00
3122;BME280;1571;52.524;14.104;2023-09-07T04:55:04;101922.75;;;13.25;100.00
3122;BME280;1571;52.524;14.104;2023-09-07T04:57:36;101919.09;;;13.28;100.00
3122;BME280;1571;52.524;14.104;2023-09-07T05:00:07;101922.84;;;13.24;100.00
3122;BME280;1571;52.524;14.104;2023-09-07T05:02:36;101922.41;;;13.33;100.00
3122;BME280;1571;52.524;14.104;2023-09-07T05:05:09;101934.34;;;13.58;100.00
3122;BME280;1571;52.524;14.104;2023-09-07T05:07:37;101926.44;;;13.72;100.00
3122;BME280;1571;52.524;14.104;2023-09-07T05:10:07;101921.16;;;13.70;100.00
3122;BME280;1571;52.524;14.104;2023-09-07T05:12:39;101928.47;;;13.99;100.00
3122;BME280;1571;52.524;14.104;2023-09-07T05:15:10;101918.69;;;14.13;100.00
3122;BME280;1571;52.524;14.104;2023-09-07T05:17:38;101924.38;;;14.23;100.00
3122;BME280;1571;52.524;14.104;2023-09-07T05:20:07;101920.41;;;14.45;100.00
3122;BME280;1571;52.524;14.104;2023-09-07T05:22:36;101919.16;;;14.66;100.00
3122;BME280;1571;52.524;14.104;2023-09-07T05:25:07;101918.38;;;14.64;100.00
3122;BME280;1571;52.524;14.104;2023-09-07T05:27:37;101919.34;;;14.77;100.00
3122;BME280;1571;52.524;14.104;2023-09-07T05:30:06;101923.56;;;14.82;100.00
3122;BME280;1571;52.524;14.104;2023-09-07T05:32:36;101926.59;;;14.90;100.00
3122;BME280;1571;52.524;14.104;2023-09-07T05:35:05;101921.63;;;15.12;100.00
3122;BME280;1571;52.524;14.104;2023-09-07T05:37:33;101921.44;;;15.01;100.00
3122;BME280;1571;52.524;14.104;2023-09-07T05:40:02;101922.56;;;15.26;100.00
3122;BME280;1571;52.524;14.104;2023-09-07T05:42:31;101933.06;;;15.43;100.00
3122;BME280;1571;52.524;14.104;2023-09-07T05:45:00;101943.56;;;15.60;100.00
3122;BME280;1571;52.524;14.104;2023-09-07T05:47:28;101937.22;;;15.76;100.00
3122;BME280;1571;52.524;14.104;2023-09-07T05:49:58;101937.75;;;15.95;100.00
3122;BME280;1571;52.524;14.104;2023-09-07T05:52:26;101940.50;;;15.94;100.00
3122;BME280;1571;52.524;14.104;2023-09-07T05:54:54;101948.06;;;16.14;100.00
3122;BME280;1571;52.524;14.104;2023-09-07T05:57:23;101941.31;;;16.09;100.00
3122;BME280;1571;52.524;14.104;2023-09-07T05:59:51;101942.31;;;16.20;100.00
3122;BME280;1571;52.524;14.104;2023-09-07T06:02:19;101939.25;;;16.52;100.00
3122;BME280;1571;52.524;14.104;2023-09-07T06:04:47;101940.78;;;16.69;100.00
3122;BME280;1571;52.524;14.104;2023-09-07T06:07:17;101937.19;;;16.83;100.00
3122;BME280;1571;52.524;14.104;2023-09-07T06:09:46;101936.97;;;16.99;100.00
3122;BME280;1571;52.524;14.104;2023-09-07T06:12:14;101943.53;;;16.82;100.00
3122;BME280;1571;52.524;14.104;2023-09-07T06:14:43;101940.72;;;16.83;100.00
3122;BME280;1571;52.524;14.104;2023-09-07T06:17:11;101935.34;;;17.09;100.00
3122;BME280;1571;52.524;14.104;2023-09-07T06:19:40;101934.22;;;17.24;100.00
3122;BME280;1571;52.524;14.104;2023-09-07T06:22:08;101935.63;;;17.30;100.00
3122;BME280;1571;52.524;14.104;2023-09-07T06:24:38;101940.84;;;17.44;100.00
3122;BME280;1571;52.524;14.104;2023-09-07T06:27:07;101938.88;;;17.59;100.00
3122;BME280;1571;52.524;14.104;2023-09-07T06:29:35;101935.38;;;17.46;100.00
3122;BME280;1571;52.524;14.104;2023-09-07T06:32:04;101937.41;;;17.55;100.00
3122;BME280;1571;52.524;14.104;2023-09-07T06:34:32;101942.06;;;17.77;100.00
3122;BME280;1571;52.524;14.104;2023-09-07T06:37:01;101946.34;;;17.80;100.00
3122;BME280;1571;52.524;14.104;2023-09-07T06:39:29;101939.25;;;17.79;100.00
3122;BME280;1571;52.524;14.104;2023-09-07T06:41:59;101945.09;;;18.21;99.84
3122;BME280;1571;52.524;14.104;2023-09-07T06:44:34;101937.72;;;18.12;98.75
3122;BME280;1571;52.524;14.104;2023-09-07T06:47:02;101943.84;;;18.14;97.33
3122;BME280;1571;52.524;14.104;2023-09-07T06:49:31;101943.66;;;18.28;96.92
3122;BME280;1571;52.524;14.104;2023-09-07T06:52:00;101943.69;;;18.39;95.79
3122;BME280;1571;52.524;14.104;2023-09-07T06:54:30;101936.66;;;18.61;95.01
3122;BME280;1571;52.524;14.104;2023-09-07T06:57:00;101942.69;;;18.64;95.40
3122;BME280;1571;52.524;14.104;2023-09-07T06:59:28;101945.28;;;18.77;94.15
3122;BME280;1571;52.524;14.104;2023-09-07T07:01:57;101949.72;;;18.89;93.66
3122;BME280;1571;52.524;14.104;2023-09-07T07:04:27;101937.22;;;19.22;91.05
3122;BME280;1571;52.524;14.104;2023-09-07T07:06:56;101937.97;;;19.13;89.78
3122;BME280;1571;52.524;14.104;2023-09-07T07:09:24;101940.53;;;19.14;90.30
3122;BME280;1571;52.524;14.104;2023-09-07T07:11:52;101952.03;;;19.50;89.88
3122;BME280;1571;52.524;14.104;2023-09-07T07:14:22;101953.09;;;19.82;88.23
3122;BME280;1571;52.524;14.104;2023-09-07T07:16:50;101952.03;;;19.50;87.49
3122;BME280;1571;52.524;14.104;2023-09-07T07:19:18;101951.75;;;19.76;87.43
3122;BME280;1571;52.524;14.104;2023-09-07T07:21:47;101945.94;;;19.92;86.30
3122;BME280;1571;52.524;14.104;2023-09-07T07:24:16;101949.03;;;20.20;85.53
3122;BME280;1571;52.524;14.104;2023-09-07T07:26:45;101947.31;;;20.18;85.83
3122;BME280;1571;52.524;14.104;2023-09-07T07:29:14;101946.19;;;20.21;85.22
3122;BME280;1571;52.524;14.104;2023-09-07T07:31:44;101954.50;;;20.29;85.44
3122;BME280;1571;52.524;14.104;2023-09-07T07:34:14;101950.03;;;20.39;83.90
3122;BME280;1571;52.524;14.104;2023-09-07T07:36:44;101950.38;;;20.46;83.55
3122;BME280;1571;52.524;14.104;2023-09-07T07:39:13;101955.38;;;20.51;82.92
3122;BME280;1571;52.524;14.104;2023-09-07T07:41:43;101956.66;;;20.68;81.79
3122;BME280;1571;52.524;14.104;2023-09-07T07:44:13;101962.38;;;21.05;80.00
3122;BME280;1571;52.524;14.104;2023-09-07T07:46:41;101959.22;;;21.21;79.98
3122;BME280;1571;52.524;14.104;2023-09-07T07:49:11;101960.75;;;21.45;79.30
3122;BME280;1571;52.524;14.104;2023-09-07T07:51:41;101969.69;;;21.45;78.71
3122;BME280;1571;52.524;14.104;2023-09-07T07:54:10;101960.28;;;21.39;76.86
3122;BME280;1571;52.524;14.104;2023-09-07T07:56:38;101967.63;;;21.58;77.92
3122;BME280;1571;52.524;14.104;2023-09-07T07:59:07;101974.38;;;21.43;77.01
3122;BME280;1571;52.524;14.104;2023-09-07T08:01:36;101969.78;;;21.74;77.94
3122;BME280;1571;52.524;14.104;2023-09-07T08:04:05;101973.63;;;21.72;76.81
3122;BME280;1571;52.524;14.104;2023-09-07T08:06:36;101976.66;;;21.98;76.95
3122;BME280;1571;52.524;14.104;2023-09-07T08:09:04;101976.66;;;22.08;75.82
3122;BME280;1571;52.524;14.104;2023-09-07T08:11:33;101957.91;;;22.26;72.75
3122;BME280;1571;52.524;14.104;2023-09-07T08:14:01;101962.47;;;22.35;73.06
3122;BME280;1571;52.524;14.104;2023-09-07T08:16:30;101965.16;;;22.44;73.20
3122;BME280;1571;52.524;14.104;2023-09-07T08:18:58;101969.03;;;22.32;72.59
3122;BME280;1571;52.524;14.104;2023-09-07T08:21:27;101974.41;;;22.61;72.33
3122;BME280;1571;52.524;14.104;2023-09-07T08:23:56;101968.25;;;22.79;72.20
3122;BME280;1571;52.524;14.104;2023-09-07T08:26:25;101976.69;;;22.56;71.22
3122;BME280;1571;52.524;14.104;2023-09-07T08:28:53;101978.34;;;22.86;71.35
3122;BME280;1571;52.524;14.104;2023-09-07T08:31:21;101973.56;;;23.18;71.08
3122;BME280;1571;52.524;14.104;2023-09-07T08:33:50;101969.84;;;23.19;70.47
3122;BME280;1571;52.524;14.104;2023-09-07T08:36:18;101969.31;;;23.43;69.96
3122;BME280;1571;52.524;14.104;2023-09-07T08:38:50;101971.19;;;23.42;68.97
3122;BME280;1571;52.524;14.104;2023-09-07T08:41:22;101962.75;;;23.45;68.20
3122;BME280;1571;52.524;14.104;2023-09-07T08:43:53;101971.22;;;23.60;66.78
3122;BME280;1571;52.524;14.104;2023-09-07T08:46:23;101965.41;;;23.83;66.39
3122;BME280;1571;52.524;14.104;2023-09-07T08:48:51;101972.69;;;23.82;66.57
3122;BME280;1571;52.524;14.104;2023-09-07T08:51:24;101963.09;;;24.06;65.16
3122;BME280;1571;52.524;14.104;2023-09-07T08:53:55;101963.06;;;24.42;64.15
3122;BME280;1571;52.524;14.104;2023-09-07T08:56:25;101964.25;;;24.57;64.19
3122;BME280;1571;52.524;14.104;2023-09-07T08:58:53;101964.25;;;24.21;62.75
3122;BME280;1571;52.524;14.104;2023-09-07T09:01:21;101965.25;;;24.02;61.80
3122;BME280;1571;52.524;14.104;2023-09-07T09:03:50;101965.72;;;24.16;62.13
3122;BME280;1571;52.524;14.104;2023-09-07T09:06:20;101964.88;;;24.15;61.12
3122;BME280;1571;52.524;14.104;2023-09-07T09:08:50;101964.41;;;24.38;61.68
3122;BME280;1571;52.524;14.104;2023-09-07T09:11:20;101964.47;;;24.64;61.20
3122;BME280;1571;52.524;14.104;2023-09-07T09:13:52;101959.56;;;24.93;61.10
3122;BME280;1571;52.524;14.104;2023-09-07T09:16:20;101960.19;;;25.13;59.92
3122;BME280;1571;52.524;14.104;2023-09-07T09:18:49;101964.16;;;24.93;59.90
3122;BME280;1571;52.524;14.104;2023-09-07T09:21:19;101955.44;;;25.16;57.48
3122;BME280;1571;52.524;14.104;2023-09-07T09:23:50;101942.41;;;25.70;58.05
3122;BME280;1571;52.524;14.104;2023-09-07T09:26:18;101941.00;;;25.49;55.89
3122;BME280;1571;52.524;14.104;2023-09-07T09:28:49;101947.06;;;25.35;55.27
3122;BME280;1571;52.524;14.104;2023-09-07T09:31:20;101940.56;;;25.28;55.09
3122;BME280;1571;52.524;14.104;2023-09-07T09:33:49;101933.91;;;25.73;54.73
3122;BME280;1571;52.524;14.104;2023-09-07T09:36:18;101939.69;;;25.78;55.67
3122;BME280;1571;52.524;14.104;2023-09-07T09:38:48;101940.75;;;25.85;55.28
3122;BME280;1571;52.524;14.104;2023-09-07T09:41:18;101947.94;;;26.03;55.70
3122;BME280;1571;52.524;14.104;2023-09-07T09:43:47;101934.75;;;25.73;53.13
3122;BME280;1571;52.524;14.104;2023-09-07T09:46:17;101930.88;;;25.76;53.91
3122;BME280;1571;52.524;14.104;2023-09-07T09:48:47;101928.19;;;26.01;52.35
3122;BME280;1571;52.524;14.104;2023-09-07T09:51:15;101920.22;;;26.07;52.44
3122;BME280;1571;52.524;14.104;2023-09-07T09:53:45;101929.25;;;26.00;53.47
3122;BME280;1571;52.524;14.104;2023-09-07T09:56:13;101910.38;;;26.14;52.65
3122;BME280;1571;52.524;14.104;2023-09-07T09:58:42;101915.13;;;26.21;53.44
3122;BME280;1571;52.524;14.104;2023-09-07T10:01:10;101920.69;;;25.86;53.54
3122;BME280;1571;52.524;14.104;2023-09-07T10:03:47;101917.34;;;26.17;53.36
3122;BME280;1571;52.524;14.104;2023-09-07T10:06:20;101906.63;;;26.15;52.11
3122;BME280;1571;52.524;14.104;2023-09-07T10:08:53;101898.63;;;26.30;51.84
3122;BME280;1571;52.524;14.104;2023-09-07T10:11:32;101908.44;;;25.82;51.87
3122;BME280;1571;52.524;14.104;2023-09-07T10:14:02;101907.09;;;25.86;51.97
3122;BME280;1571;52.524;14.104;2023-09-07T10:16:41;101904.94;;;25.90;51.96
3122;BME280;1571;52.524;14.104;2023-09-07T10:19:15;101899.59;;;25.72;52.03
3122;BME280;1571;52.524;14.104;2023-09-07T10:21:44;101895.22;;;26.28;52.53
3122;BME280;1571;52.524;14.104;2023-09-07T10:24:23;101891.47;;;26.46;52.08
3122;BME280;1571;52.524;14.104;2023-09-07T10:26:56;101896.75;;;26.39;51.41
3122;BME280;1571;52.524;14.104;2023-09-07T10:29:25;101895.72;;;26.48;52.08
3122;BME280;1571;52.524;14.104;2023-09-07T10:31:54;101885.72;;;26.32;50.41
3122;BME280;1571;52.524;14.104;2023-09-07T10:34:35;101878.78;;;26.86;50.73
3122;BME280;1571;52.524;14.104;2023-09-07T10:37:05;101877.47;;;26.73;50.93
3122;BME280;1571;52.524;14.104;2023-09-07T10:39:34;101885.16;;;26.45;52.56
3122;BME280;1571;52.524;14.104;2023-09-07T10:42:04;101882.78;;;26.50;51.91
3122;BME280;1571;52.524;14.104;2023-09-07T10:44:32;101877.88;;;26.37;51.76
3122;BME280;1571;52.524;14.104;2023-09-07T10:47:03;101875.81;;;26.56;51.62
3122;BME280;1571;52.524;14.104;2023-09-07T10:49:32;101873.94;;;26.48;52.02
3122;BME280;1571;52.524;14.104;2023-09-07T10:52:02;101870.16;;;26.66;53.04
3122;BME280;1571;52.524;14.104;2023-09-07T10:54:31;101876.44;;;26.74;51.51
3122;BME280;1571;52.524;14.104;2023-09-07T10:57:07;101862.81;;;26.83;49.69
3122;BME280;1571;52.524;14.104;2023-09-07T10:59:36;101866.13;;;26.62;48.90
3122;BME280;1571;52.524;14.104;2023-09-07T11:02:05;101863.97;;;26.88;48.17
3122;BME280;1571;52.524;14.104;2023-09-07T11:04:34;101851.53;;;26.94;47.29
3122;BME280;1571;52.524;14.104;2023-09-07T11:07:04;101852.38;;;26.94;47.51
3122;BME280;1571;52.524;14.104;2023-09-07T11:09:32;101855.81;;;27.28;47.67
3122;BME280;1571;52.524;14.104;2023-09-07T11:12:04;101847.22;;;26.99;47.82
3122;BME280;1571;52.524;14.104;2023-09-07T11:14:33;101844.16;;;27.03;46.76
3122;BME280;1571;52.524;14.104;2023-09-07T11:17:01;101845.00;;;27.03;46.44
3122;BME280;1571;52.524;14.104;2023-09-07T11:19:32;101845.63;;;27.22;46.13
3122;BME280;1571;52.524;14.104;2023-09-07T11:22:00;101848.13;;;27.31;47.19
3122;BME280;1571;52.524;14.104;2023-09-07T11:24:34;101837.25;;;27.31;45.78
3122;BME280;1571;52.524;14.104;2023-09-07T11:27:03;101839.88;;;27.08;46.83
3122;BME280;1571;52.524;14.104;2023-09-07T11:29:32;101839.03;;;27.39;46.88
3122;BME280;1571;52.524;14.104;2023-09-07T11:32:06;101824.75;;;27.37;46.81
3122;BME280;1571;52.524;14.104;2023-09-07T11:34:46;101838.25;;;27.30;47.43
3122;BME280;1571;52.524;14.104;2023-09-07T11:37:16;101834.88;;;27.20;47.26
3122;BME280;1571;52.524;14.104;2023-09-07T11:39:46;101833.03;;;27.12;46.61
3122;BME280;1571;52.524;14.104;2023-09-07T11:42:15;101839.47;;;27.19;47.23
3122;BME280;1571;52.524;14.104;2023-09-07T11:44:43;101821.22;;;27.28;46.46
3122;BME280;1571;52.524;14.104;2023-09-07T11:47:11;101823.34;;;27.41;46.68
3122;BME280;1571;52.524;14.104;2023-09-07T11:49:39;101828.88;;;27.56;47.19
3122;BME280;1571;52.524;14.104;2023-09-07T11:52:08;101809.97;;;27.77;44.72
3122;BME280;1571;52.524;14.104;2023-09-07T11:54:36;101815.31;;;27.48;45.23
3122;BME280;1571;52.524;14.104;2023-09-07T11:57:06;101823.84;;;27.13;45.57
3122;BME280;1571;52.524;14.104;2023-09-07T11:59:34;101818.63;;;27.35;45.85
3122;BME280;1571;52.524;14.104;2023-09-07T12:02:22;101804.63;;;27.07;44.50
3122;BME280;1571;52.524;14.104;2023-09-07T12:04:51;101811.13;;;26.97;45.12
3122;BME280;1571;52.524;14.104;2023-09-07T12:07:19;101819.53;;;27.50;46.07
3122;BME280;1571;52.524;14.104;2023-09-07T12:09:48;101809.31;;;27.29;44.17
3122;BME280;1571;52.524;14.104;2023-09-07T12:12:18;101809.72;;;27.41;44.83
3122;BME280;1571;52.524;14.104;2023-09-07T12:14:47;101812.75;;;27.23;45.47
3122;BME280;1571;52.524;14.104;2023-09-07T12:17:15;101811.22;;;27.20;45.12
3122;BME280;1571;52.524;14.104;2023-09-07T12:19:44;101793.06;;;27.05;44.30
3122;BME280;1571;52.524;14.104;2023-09-07T12:22:13;101799.28;;;27.22;44.01
3122;BME280;1571;52.524;14.104;2023-09-07T12:24:41;101794.56;;;27.07;44.18
3122;BME280;1571;52.524;14.104;2023-09-07T12:27:09;101790.78;;;27.16;43.88
3122;BME280;1571;52.524;14.104;2023-09-07T12:29:39;101795.56;;;27.14;45.10
3122;BME280;1571;52.524;14.104;2023-09-07T12:32:07;101798.53;;;27.59;45.21
3122;BME280;1571;52.524;14.104;2023-09-07T12:34:36;101785.09;;;27.26;43.22
3122;BME280;1571;52.524;14.104;2023-09-07T12:37:04;101786.56;;;27.60;43.51
3122;BME280;1571;52.524;14.104;2023-09-07T12:39:33;101786.69;;;27.67;45.01
3122;BME280;1571;52.524;14.104;2023-09-07T12:42:01;101796.84;;;27.27;44.31
3122;BME280;1571;52.524;14.104;2023-09-07T12:44:30;101788.38;;;27.45;44.38
3122;BME280;1571;52.524;14.104;2023-09-07T12:47:00;101783.84;;;27.37;42.76
3122;BME280;1571;52.524;14.104;2023-09-07T12:49:29;101785.84;;;27.43;43.30
3122;BME280;1571;52.524;14.104;2023-09-07T12:51:57;101791.06;;;27.30;43.44
3122;BME280;1571;52.524;14.104;2023-09-07T12:54:25;101784.16;;;27.42;44.91
3122;BME280;1571;52.524;14.104;2023-09-07T12:56:53;101783.38;;;27.56;44.93
3122;BME280;1571;52.524;14.104;2023-09-07T12:59:22;101773.34;;;27.49;43.41
3122;BME280;1571;52.524;14.104;2023-09-07T13:01:50;101779.56;;;27.43;44.29
3122;BME280;1571;52.524;14.104;2023-09-07T13:04:24;101776.44;;;27.69;45.71
3122;BME280;1571;52.524;14.104;2023-09-07T13:06:52;101777.47;;;27.45;44.81